Forside
METAR-TAF:

METAR-TAF

Lufthavne :

Aarhus Lufthavn

Aarhus, Danmark

Breddekreds: 56-18N, længdekreds: 010-37E, højde: 23 m

Aktuelle vejr

Denne rapport blev lavet for 16 minutter siden, kl. 02:50 UTC
Vind 12 kt fra vestnordvest
Temperatur 10°C
Fugtighed 87%
Tryk 1022 hPa
Sigt 10 km eller mere

METAR: EKAH 250250Z AUTO 29012KT 9999NDV FEW011/// BKN060/// 10/08 Q1022

Tid: 05:06 (03:06 UTC)


TAF: fraværende

Vejrobservationer og prognoser fra mere end 4000 lufthavne (METAR og TAF).

De gule og røde prikker repræsenterer de meteorologiske stationer.

Flyt musen over at se navnet på stationen.

Så klik over at se vejr observationer og prognoser.

At skifte det kort: Klik på de grønne knapper med et sort kors for at zoome ind; på den grønne knap med en bindestreg for at zoome ud; eller på de grønne pile for tilstødende kort.


METAR-TAF: